Decoded Metar for KFFC (PEACHTREE CITY in GA, USA) (IATA:FFC) | Meteo·Mobile Aviation Weather
aviador You're here:

KFFC Decoded Metar

PEACHTREE CITY in GA, USA
Report Time2019-03-22 13:53:00
UTC Time2019-03-22 13:59:03
Flight Rules vfr VFR
Wind320° at 10 Gusting to 19 kt
W.Decomp.*RWY 31: 9.7 kt HW 2.6 kt RCW
W.Rank320° ranks 2
Current wind is above 320° avg. (8.2)
Visibility9999 m
Phenomena:N/A
Clouds:N/A
Expected CloudBase > 4,000 ft AGL from Temp-Dew spread
CeilingNone
Temp09°C (ISA -4)
Dew Point-1°C (50% RH)
AAT3.3°C
QNH1019 hPa
Density Alt226 ft
Elevation860 ft
Report Wrong Elevation
Raw Report
METAR KFFC 221353Z AUTO 32010G19KT 10SM CLR 09/M01 A3008 RMK AO2
SLP187 T00891006=

Extra information for KFFC:More info

Metar Taf Metar & Taf Last 4 Metars F.Rules Stats Wind Profile Meteogram Temp Stats Airport Information Weather charts Add Link Nearby VenuesMetar ALERT Operation Metar Decoded Social comments

AIRNAV info for KFFC